createdAt,value
2022-11-18T00:01:38.980Z,8.80
2022-11-18T00:04:07.216Z,8.80
2022-11-18T00:06:36.912Z,8.80
2022-11-18T00:09:05.527Z,8.70
2022-11-18T00:11:50.974Z,8.60
2022-11-18T00:14:23.416Z,8.60
2022-11-18T00:16:54.001Z,8.60
2022-11-18T00:19:23.825Z,8.50
2022-11-18T00:21:53.769Z,8.50
2022-11-18T00:24:22.937Z,8.50
2022-11-18T00:26:51.592Z,8.50
2022-11-18T00:29:20.500Z,8.40
2022-11-18T00:31:49.367Z,8.40
2022-11-18T00:34:19.448Z,8.40
2022-11-18T00:36:48.663Z,8.50
2022-11-18T00:39:21.383Z,8.50
2022-11-18T00:42:07.947Z,8.50
2022-11-18T00:44:36.927Z,8.30
2022-11-18T00:47:05.394Z,8.20
2022-11-18T00:49:33.722Z,8.20
2022-11-18T00:52:02.347Z,8.10
2022-11-18T00:54:32.379Z,8.00
2022-11-18T00:57:00.644Z,7.90
2022-11-18T00:59:29.021Z,8.00
2022-11-18T01:01:57.319Z,8.10
2022-11-18T01:04:25.700Z,8.10
2022-11-18T01:06:54.258Z,8.10
2022-11-18T01:09:22.512Z,8.20
2022-11-18T01:12:09.799Z,8.20
2022-11-18T01:14:38.101Z,8.30
2022-11-18T01:17:06.507Z,8.40
2022-11-18T01:19:34.798Z,8.50
2022-11-18T01:22:06.144Z,8.40
2022-11-18T01:24:35.121Z,8.40
2022-11-18T01:27:04.949Z,8.40
2022-11-18T01:29:33.221Z,8.30
2022-11-18T01:32:23.361Z,8.40
2022-11-18T01:34:52.065Z,8.30
2022-11-18T01:37:20.412Z,8.30
2022-11-18T01:39:48.716Z,8.40
2022-11-18T01:42:19.017Z,8.30
2022-11-18T01:45:10.345Z,8.40
2022-11-18T01:47:44.408Z,8.50
2022-11-18T01:50:14.270Z,8.50
2022-11-18T01:52:45.245Z,8.40
2022-11-18T01:55:20.524Z,8.30
2022-11-18T01:57:52.311Z,8.20
2022-11-18T02:00:20.744Z,8.20
2022-11-18T02:02:50.194Z,8.20
2022-11-18T02:05:19.505Z,8.10
2022-11-18T02:07:48.511Z,8.10
2022-11-18T02:10:21.220Z,8.10
2022-11-18T02:12:52.582Z,8.00
2022-11-18T02:15:27.660Z,7.90
2022-11-18T02:18:04.586Z,7.90
2022-11-18T02:20:35.817Z,7.90
2022-11-18T02:23:55.457Z,8.00
2022-11-18T02:26:59.205Z,8.00
2022-11-18T02:29:32.292Z,8.00
2022-11-18T02:32:03.431Z,8.00
2022-11-18T02:34:42.340Z,8.00
2022-11-18T02:37:18.995Z,8.00
2022-11-18T02:39:53.386Z,8.00
2022-11-18T02:42:24.059Z,8.00
2022-11-18T02:45:00.093Z,8.00
2022-11-18T02:47:30.128Z,8.10
2022-11-18T02:50:01.592Z,8.10
2022-11-18T02:52:31.029Z,8.20
2022-11-18T02:55:01.201Z,8.20
2022-11-18T02:57:31.088Z,8.20
2022-11-18T03:00:00.915Z,8.30
2022-11-18T03:02:29.279Z,8.30
2022-11-18T03:04:59.802Z,8.10
2022-11-18T03:07:33.119Z,8.00
2022-11-18T03:10:02.335Z,7.90
2022-11-18T03:12:38.684Z,7.90
2022-11-18T03:15:18.677Z,7.80
2022-11-18T03:17:56.295Z,7.80
2022-11-18T03:20:30.336Z,7.70
2022-11-18T03:23:05.549Z,7.70
2022-11-18T03:25:38.683Z,7.70
2022-11-18T03:28:11.509Z,7.60
2022-11-18T03:30:45.861Z,7.60
2022-11-18T03:33:19.874Z,7.70
2022-11-18T03:35:51.419Z,7.70
2022-11-18T03:38:24.452Z,7.70
2022-11-18T03:40:58.634Z,7.70
2022-11-18T03:43:31.131Z,7.70
2022-11-18T03:46:06.953Z,7.80
2022-11-18T03:48:39.867Z,7.80
2022-11-18T03:51:10.953Z,7.80
2022-11-18T03:53:44.723Z,7.90
2022-11-18T03:56:17.796Z,7.90
2022-11-18T03:58:54.343Z,7.90
2022-11-18T04:01:30.728Z,8.00
2022-11-18T04:03:59.362Z,8.00
2022-11-18T04:06:34.207Z,8.10
2022-11-18T04:09:06.119Z,8.10
2022-11-18T04:12:00.423Z,8.20
2022-11-18T04:14:29.034Z,8.20
2022-11-18T04:16:58.895Z,8.20
2022-11-18T04:19:27.202Z,8.10
2022-11-18T04:21:55.580Z,8.10
2022-11-18T04:24:23.905Z,8.10
2022-11-18T04:26:52.254Z,8.10
2022-11-18T04:29:20.735Z,8.10
2022-11-18T04:31:49.048Z,8.10
2022-11-18T04:34:19.866Z,8.10
2022-11-18T04:36:48.207Z,8.10
2022-11-18T04:39:18.467Z,8.10
2022-11-18T04:41:59.448Z,8.00
2022-11-18T04:44:29.316Z,8.00
2022-11-18T04:47:01.979Z,8.00
2022-11-18T04:49:32.402Z,8.00
2022-11-18T04:52:01.409Z,8.00
2022-11-18T04:54:30.283Z,8.10
2022-11-18T04:56:58.615Z,8.00
2022-11-18T04:59:28.941Z,8.10
2022-11-18T05:01:58.332Z,8.00
2022-11-18T05:04:29.775Z,7.90
2022-11-18T05:07:00.444Z,8.00
2022-11-18T05:09:32.019Z,7.90
2022-11-18T05:12:18.169Z,8.00
2022-11-18T05:14:50.155Z,7.90
2022-11-18T05:17:20.284Z,8.00
2022-11-18T05:19:48.582Z,7.90
2022-11-18T05:22:18.482Z,7.90
2022-11-18T05:24:46.838Z,7.90
2022-11-18T05:27:16.110Z,7.90
2022-11-18T05:29:44.835Z,7.90
2022-11-18T05:32:13.175Z,7.90
2022-11-18T05:34:42.029Z,7.80
2022-11-18T05:37:10.737Z,7.80
2022-11-18T05:39:40.831Z,7.80
2022-11-18T05:42:26.902Z,7.90
2022-11-18T05:44:58.397Z,7.80
2022-11-18T05:47:27.583Z,7.80
2022-11-18T05:49:55.875Z,7.90
2022-11-18T05:52:24.199Z,8.00
2022-11-18T05:54:54.033Z,8.10
2022-11-18T05:57:22.278Z,8.20
2022-11-18T05:59:50.555Z,8.20
2022-11-18T06:02:24.642Z,8.30
2022-11-18T06:04:59.034Z,8.30
2022-11-18T06:07:30.909Z,8.40
2022-11-18T06:10:05.516Z,8.40
2022-11-18T06:12:40.788Z,8.40
2022-11-18T06:15:13.278Z,8.40
2022-11-18T06:17:45.141Z,8.50
2022-11-18T06:20:14.108Z,8.50
2022-11-18T06:22:46.522Z,8.50
2022-11-18T06:25:16.953Z,8.50
2022-11-18T06:27:46.690Z,8.50
2022-11-18T06:30:16.006Z,8.50
2022-11-18T06:32:46.561Z,8.50
2022-11-18T06:35:15.126Z,8.50
2022-11-18T06:37:43.775Z,8.60
2022-11-18T06:40:13.555Z,8.60
2022-11-18T06:43:00.871Z,8.60
2022-11-18T06:45:29.234Z,8.50
2022-11-18T06:47:57.954Z,8.60
2022-11-18T06:50:28.742Z,8.60
2022-11-18T06:52:57.454Z,8.70
2022-11-18T06:55:25.909Z,8.70
2022-11-18T06:57:57.341Z,8.70
2022-11-18T07:00:25.664Z,8.80
2022-11-18T07:02:53.953Z,8.80
2022-11-18T07:05:22.303Z,8.80
2022-11-18T07:07:50.695Z,8.80
2022-11-18T07:10:19.129Z,8.70
2022-11-18T07:12:47.367Z,8.70
2022-11-18T07:15:17.252Z,8.80
2022-11-18T07:17:45.578Z,8.80
2022-11-18T07:20:13.979Z,8.80
2022-11-18T07:22:42.317Z,8.80
2022-11-18T07:25:11.204Z,8.80
2022-11-18T07:27:39.668Z,8.90
2022-11-18T07:30:09.084Z,8.90
2022-11-18T07:32:38.870Z,8.90
2022-11-18T07:35:08.267Z,8.90
2022-11-18T07:37:36.681Z,8.90
2022-11-18T07:40:05.670Z,8.90
2022-11-18T07:42:42.700Z,8.90
2022-11-18T07:45:12.885Z,9.00
2022-11-18T07:47:42.860Z,9.00
2022-11-18T07:50:11.412Z,9.00
2022-11-18T07:52:39.693Z,9.10
2022-11-18T07:55:08.707Z,9.10
2022-11-18T07:57:37.080Z,9.10
2022-11-18T08:00:06.302Z,9.20
2022-11-18T08:02:34.642Z,9.20
2022-11-18T08:05:05.982Z,9.20
2022-11-18T08:07:34.656Z,9.20
2022-11-18T08:10:03.496Z,9.20
2022-11-18T08:12:31.897Z,9.30
2022-11-18T08:15:00.198Z,9.30
2022-11-18T08:17:28.519Z,9.30
2022-11-18T08:19:56.907Z,9.30
2022-11-18T08:22:26.600Z,9.40
2022-11-18T08:24:54.915Z,9.40
2022-11-18T08:27:23.176Z,9.40
2022-11-18T08:29:51.945Z,9.40
2022-11-18T08:32:20.259Z,9.40
2022-11-18T08:34:48.613Z,9.50
2022-11-18T08:37:16.896Z,9.50
2022-11-18T08:39:46.595Z,9.40
2022-11-18T08:42:14.891Z,9.50
2022-11-18T08:44:43.195Z,9.50
2022-11-18T08:47:11.452Z,9.50
2022-11-18T08:49:39.799Z,9.50
2022-11-18T08:52:08.082Z,9.50
2022-11-18T08:54:36.656Z,9.50
2022-11-18T08:57:06.469Z,9.40
2022-11-18T08:59:37.812Z,9.50
2022-11-18T09:02:06.157Z,9.50
2022-11-18T09:04:34.574Z,9.50
2022-11-18T09:07:03.565Z,9.50
2022-11-18T09:09:31.976Z,9.60
2022-11-18T09:12:00.435Z,9.60
2022-11-18T09:15:12.333Z,9.60
2022-11-18T09:17:18.554Z,9.60
2022-11-18T09:19:48.213Z,9.60
2022-11-18T09:22:17.067Z,9.60
2022-11-18T09:24:45.288Z,9.60
2022-11-18T09:27:16.986Z,9.60
2022-11-18T09:29:49.575Z,9.60
2022-11-18T09:32:17.872Z,9.60
2022-11-18T09:34:46.145Z,9.70
2022-11-18T09:37:14.421Z,9.60
2022-11-18T09:39:42.815Z,9.60
2022-11-18T09:42:36.199Z,9.60
2022-11-18T09:45:18.165Z,9.60
2022-11-18T09:47:50.424Z,9.60
2022-11-18T09:53:19.924Z,9.50
2022-11-18T09:55:50.248Z,9.50
2022-11-18T09:58:22.475Z,9.50
2022-11-18T10:00:52.331Z,9.50
2022-11-18T10:03:28.079Z,9.40
2022-11-18T10:06:01.912Z,9.40
2022-11-18T10:08:34.580Z,9.50
2022-11-18T10:11:08.607Z,9.40
2022-11-18T10:13:51.708Z,9.50
2022-11-18T10:16:33.311Z,9.50
2022-11-18T10:19:11.985Z,9.50
2022-11-18T10:21:49.873Z,9.50
2022-11-18T10:24:21.703Z,9.50
2022-11-18T10:26:57.403Z,9.50
2022-11-18T10:29:26.245Z,9.60
2022-11-18T10:32:05.310Z,9.60
2022-11-18T10:34:34.645Z,9.60
2022-11-18T10:37:07.183Z,9.60
2022-11-18T10:39:50.370Z,9.60
2022-11-18T10:42:25.958Z,9.60
2022-11-18T10:44:54.238Z,9.70
2022-11-18T10:47:31.938Z,9.70
2022-11-18T10:50:02.520Z,9.70
2022-11-18T10:52:31.934Z,9.70
2022-11-18T10:55:09.931Z,9.80
2022-11-18T10:57:43.762Z,9.80
2022-11-18T11:00:43.721Z,9.80
2022-11-18T11:03:24.349Z,9.90
2022-11-18T11:06:38.081Z,10.00
2022-11-18T11:09:10.006Z,10.00
2022-11-18T11:11:40.182Z,10.10
2022-11-18T11:14:23.034Z,10.10
2022-11-18T11:16:59.225Z,10.10
2022-11-18T11:19:45.645Z,10.20
2022-11-18T11:22:14.379Z,10.20
2022-11-18T11:24:42.855Z,10.20
2022-11-18T11:30:27.748Z,10.20
2022-11-18T11:33:21.108Z,10.20
2022-11-18T11:35:56.782Z,10.30
2022-11-18T11:38:36.555Z,10.30
2022-11-18T11:41:13.965Z,10.30
2022-11-18T11:43:53.505Z,10.40
2022-11-18T11:46:30.173Z,10.40
2022-11-18T11:49:07.087Z,10.40
2022-11-18T11:51:45.104Z,10.40
2022-11-18T11:54:29.976Z,10.30
2022-11-18T11:57:05.451Z,10.30
2022-11-18T11:59:41.764Z,10.30
2022-11-18T12:02:48.787Z,10.30
2022-11-18T12:05:23.611Z,10.30
2022-11-18T12:07:57.534Z,10.30
2022-11-18T12:10:31.808Z,10.30
2022-11-18T12:13:15.233Z,10.30
2022-11-18T12:15:55.940Z,10.30
2022-11-18T12:18:32.881Z,10.30
2022-11-18T12:21:01.318Z,10.30
2022-11-18T12:23:32.171Z,10.30
2022-11-18T12:26:03.315Z,10.20
2022-11-18T12:28:35.442Z,10.30
2022-11-18T12:31:43.485Z,10.30
2022-11-18T12:34:32.403Z,10.30
2022-11-18T12:37:40.458Z,10.40
2022-11-18T12:40:12.574Z,10.40
2022-11-18T12:43:01.039Z,10.40
2022-11-18T12:46:00.136Z,10.50
2022-11-18T12:48:36.544Z,10.50
2022-11-18T12:51:31.383Z,10.60
2022-11-18T12:53:59.884Z,10.60
2022-11-18T12:56:36.850Z,10.60
2022-11-18T12:59:05.133Z,10.60
2022-11-18T13:01:35.596Z,10.60
2022-11-18T13:04:09.316Z,10.70
2022-11-18T13:06:40.156Z,10.70
2022-11-18T13:09:16.552Z,10.60
2022-11-18T13:11:52.036Z,10.70
2022-11-18T13:14:42.090Z,10.60
2022-11-18T13:17:50.757Z,10.70
2022-11-18T13:20:27.289Z,10.70
2022-11-18T13:23:15.055Z,10.60
2022-11-18T13:25:45.226Z,10.70
2022-11-18T13:28:25.739Z,10.70
2022-11-18T13:31:00.781Z,10.70
2022-11-18T13:33:40.267Z,10.70
2022-11-18T13:36:18.374Z,10.70
2022-11-18T13:38:56.864Z,10.70
2022-11-18T13:41:32.763Z,10.70
2022-11-18T13:44:19.542Z,10.70
2022-11-18T13:46:51.624Z,10.70
2022-11-18T13:49:24.402Z,10.70
2022-11-18T13:51:53.589Z,10.70
2022-11-18T13:54:25.941Z,10.70
2022-11-18T13:56:54.684Z,10.80
2022-11-18T13:59:25.926Z,10.70
2022-11-18T14:01:56.585Z,10.80
2022-11-18T14:04:27.438Z,10.70
2022-11-18T14:07:15.806Z,10.70
2022-11-18T14:09:55.071Z,10.80
2022-11-18T14:12:26.103Z,10.70
2022-11-18T14:15:13.983Z,10.80
2022-11-18T14:17:52.789Z,10.80
2022-11-18T14:20:21.526Z,10.70
2022-11-18T14:22:53.974Z,10.70
2022-11-18T14:25:26.934Z,10.70
2022-11-18T14:27:56.357Z,10.70
2022-11-18T14:30:32.320Z,10.60
2022-11-18T14:33:11.344Z,10.70
2022-11-18T14:35:39.930Z,10.80
2022-11-18T14:41:04.938Z,10.80
2022-11-18T14:43:33.470Z,10.70
2022-11-18T14:46:06.877Z,10.70
2022-11-18T14:48:35.275Z,10.70
2022-11-18T14:51:03.595Z,10.80
2022-11-18T14:53:31.915Z,10.80
2022-11-18T14:56:01.375Z,10.70
2022-11-18T14:58:29.676Z,10.70
2022-11-18T15:00:58.044Z,10.70
2022-11-18T15:03:27.839Z,10.70
2022-11-18T15:05:56.462Z,10.70
2022-11-18T15:08:24.902Z,10.70
2022-11-18T15:10:53.184Z,10.70
2022-11-18T15:13:21.490Z,10.70
2022-11-18T15:15:49.821Z,10.60
2022-11-18T15:18:18.308Z,10.70
2022-11-18T15:27:27.826Z,10.60
2022-11-18T15:30:01.535Z,10.60
2022-11-18T15:32:30.277Z,10.60
2022-11-18T15:34:58.601Z,10.50
2022-11-18T15:37:26.943Z,10.60
2022-11-18T15:39:55.266Z,10.50
2022-11-18T15:42:23.730Z,10.60
2022-11-18T15:44:53.435Z,10.50
2022-11-18T15:47:21.737Z,10.60
2022-11-18T15:49:50.034Z,10.50
2022-11-18T15:52:19.075Z,10.50
2022-11-18T15:54:47.549Z,10.50
2022-11-18T15:57:15.868Z,10.50
2022-11-18T15:59:44.511Z,10.40
2022-11-18T16:02:14.374Z,10.40
2022-11-18T16:04:42.818Z,10.40
2022-11-18T16:07:11.243Z,10.40
2022-11-18T16:09:57.039Z,10.40
2022-11-18T16:12:43.004Z,10.30
2022-11-18T16:15:28.648Z,10.40
2022-11-18T16:17:58.732Z,10.30
2022-11-18T16:20:27.728Z,10.30
2022-11-18T16:22:57.498Z,10.30
2022-11-18T16:25:27.520Z,10.30
2022-11-18T16:27:57.062Z,10.30
2022-11-18T16:30:47.910Z,10.30
2022-11-18T16:33:17.819Z,10.40
2022-11-18T16:35:49.237Z,10.30
2022-11-18T16:38:17.460Z,10.30
2022-11-18T16:40:45.798Z,10.30
2022-11-18T16:43:14.152Z,10.30
2022-11-18T16:45:42.467Z,10.30
2022-11-18T16:48:10.789Z,10.30
2022-11-18T16:50:40.748Z,10.30
2022-11-18T16:53:09.151Z,10.30
2022-11-18T16:55:37.486Z,10.30
2022-11-18T16:58:05.770Z,10.30
2022-11-18T17:01:09.159Z,10.30
2022-11-18T17:03:22.400Z,10.30
2022-11-18T17:05:52.064Z,10.30
2022-11-18T17:08:20.341Z,10.30
2022-11-18T17:10:48.623Z,10.30
2022-11-18T17:13:17.013Z,10.20
2022-11-18T17:15:47.556Z,10.30
2022-11-18T17:18:15.848Z,10.30
2022-11-18T17:20:44.247Z,10.20
2022-11-18T17:23:13.905Z,10.30
2022-11-18T17:25:43.659Z,10.30
2022-11-18T17:28:11.969Z,10.20
2022-11-18T17:30:41.288Z,10.10
2022-11-18T17:33:14.766Z,10.10
2022-11-18T17:35:43.049Z,10.00
2022-11-18T17:38:11.355Z,10.10
2022-11-18T17:40:40.971Z,10.10
2022-11-18T17:43:09.560Z,10.10
2022-11-18T17:45:41.909Z,10.10
2022-11-18T17:48:10.292Z,10.10
2022-11-18T17:50:38.695Z,10.20
2022-11-18T17:53:07.014Z,10.20
2022-11-18T17:55:35.582Z,10.20
2022-11-18T17:58:05.404Z,10.20
2022-11-18T18:00:33.826Z,10.20
2022-11-18T18:03:02.946Z,10.20
2022-11-18T18:05:31.427Z,10.20
2022-11-18T18:08:00.488Z,10.20
2022-11-18T18:10:28.769Z,10.20
2022-11-18T18:13:14.702Z,10.20
2022-11-18T18:15:44.380Z,10.20
2022-11-18T18:18:12.874Z,10.20
2022-11-18T18:20:41.270Z,10.20
2022-11-18T18:23:09.728Z,10.20
2022-11-18T18:25:38.057Z,10.20
2022-11-18T18:28:06.661Z,10.20
2022-11-18T18:30:34.970Z,10.20
2022-11-18T18:33:04.762Z,10.20
2022-11-18T18:35:33.083Z,10.20
2022-11-18T18:38:01.633Z,10.20
2022-11-18T18:40:30.085Z,10.20
2022-11-18T18:42:58.475Z,10.20
2022-11-18T18:45:44.399Z,10.10
2022-11-18T18:48:14.094Z,10.10
2022-11-18T18:50:42.389Z,10.10
2022-11-18T18:53:13.917Z,10.10
2022-11-18T18:55:45.029Z,10.10
2022-11-18T18:58:13.731Z,10.10
2022-11-18T19:00:42.043Z,10.00
2022-11-18T19:03:14.206Z,10.00
2022-11-18T19:06:16.996Z,10.00
2022-11-18T19:08:30.933Z,10.00
2022-11-18T19:10:59.267Z,9.90
2022-11-18T19:13:29.067Z,10.00
2022-11-18T19:15:57.673Z,10.00
2022-11-18T19:18:27.427Z,10.00
2022-11-18T19:20:59.170Z,10.00
2022-11-18T19:23:27.458Z,10.10
2022-11-18T19:26:00.718Z,10.10
2022-11-18T19:28:29.206Z,10.00
2022-11-18T19:31:00.855Z,10.00
2022-11-18T19:33:30.612Z,10.00
2022-11-18T19:36:02.764Z,10.00
2022-11-18T19:38:31.549Z,10.00
2022-11-18T19:41:00.314Z,10.00
2022-11-18T19:43:28.764Z,10.00
2022-11-18T19:45:59.397Z,10.00
2022-11-18T19:48:28.099Z,10.00
2022-11-18T19:51:08.638Z,9.90
2022-11-18T19:53:39.401Z,10.00
2022-11-18T19:56:09.943Z,10.00
2022-11-18T19:58:39.872Z,10.00
2022-11-18T20:01:13.405Z,10.00
2022-11-18T20:03:42.271Z,10.00
2022-11-18T20:06:16.375Z,10.00
2022-11-18T20:08:46.137Z,10.00
2022-11-18T20:11:16.178Z,10.00
2022-11-18T20:13:45.514Z,10.10
2022-11-18T20:16:16.719Z,10.00
2022-11-18T20:18:46.440Z,10.10
2022-11-18T20:21:20.986Z,10.10
2022-11-18T20:23:50.790Z,10.10
2022-11-18T20:26:21.080Z,10.10
2022-11-18T20:28:54.453Z,10.10
2022-11-18T20:31:26.280Z,10.10
2022-11-18T20:33:58.597Z,10.10
2022-11-18T20:36:31.160Z,10.20
2022-11-18T20:39:00.877Z,10.10
2022-11-18T20:41:30.481Z,10.20
2022-11-18T20:44:01.919Z,10.10
2022-11-18T20:46:30.321Z,10.10
2022-11-18T20:48:58.730Z,10.10
2022-11-18T20:51:29.921Z,10.20
2022-11-18T20:53:59.889Z,10.10
2022-11-18T20:56:29.005Z,10.10
2022-11-18T20:58:57.865Z,10.10
2022-11-18T21:01:28.497Z,10.00
2022-11-18T21:03:58.297Z,10.00
2022-11-18T21:06:29.706Z,10.00
2022-11-18T21:08:59.495Z,10.00
2022-11-18T21:11:28.053Z,10.00
2022-11-18T21:14:18.393Z,9.90
2022-11-18T21:16:50.633Z,9.90
2022-11-18T21:19:19.058Z,10.00
2022-11-18T21:21:49.172Z,10.00
2022-11-18T21:24:19.219Z,10.00
2022-11-18T21:26:48.882Z,9.90
2022-11-18T21:29:18.733Z,9.90
2022-11-18T21:31:49.626Z,9.80
2022-11-18T21:34:18.702Z,9.80
2022-11-18T21:36:53.222Z,9.80
2022-11-18T21:39:22.971Z,9.80
2022-11-18T21:41:55.660Z,9.70
2022-11-18T21:44:24.455Z,9.70
2022-11-18T21:46:53.044Z,9.70
2022-11-18T21:49:21.749Z,9.70
2022-11-18T21:51:51.991Z,9.70
2022-11-18T21:54:21.456Z,9.70
2022-11-18T21:56:49.776Z,9.70
2022-11-18T21:59:18.506Z,9.70
2022-11-18T22:01:47.185Z,9.70
2022-11-18T22:04:36.861Z,9.80
2022-11-18T22:07:06.682Z,9.80
2022-11-18T22:09:36.924Z,9.80
2022-11-18T22:12:07.834Z,9.80
2022-11-18T22:14:36.468Z,9.80
2022-11-18T22:17:05.334Z,9.80
2022-11-18T22:19:33.714Z,9.80
2022-11-18T22:22:02.257Z,9.80
2022-11-18T22:24:31.983Z,9.80
2022-11-18T22:27:00.371Z,9.70
2022-11-18T22:29:29.780Z,9.70
2022-11-18T22:31:58.148Z,9.70
2022-11-18T22:34:26.550Z,9.80
2022-11-18T22:36:54.894Z,9.70
2022-11-18T22:39:23.180Z,9.70
2022-11-18T22:42:10.252Z,9.70
2022-11-18T22:44:38.625Z,9.70
2022-11-18T22:47:07.034Z,9.70
2022-11-18T22:50:04.052Z,9.70
2022-11-18T22:52:32.674Z,9.70
2022-11-18T22:55:00.906Z,9.70
2022-11-18T22:57:35.429Z,9.70
2022-11-18T23:00:04.720Z,9.60
2022-11-18T23:02:33.034Z,9.60
2022-11-18T23:05:01.441Z,9.60
2022-11-18T23:07:30.041Z,9.60
2022-11-18T23:09:58.419Z,9.50
2022-11-18T23:12:47.700Z,9.50
2022-11-18T23:15:17.910Z,9.50
2022-11-18T23:17:46.166Z,9.50
2022-11-18T23:20:14.504Z,9.50
2022-11-18T23:22:42.821Z,9.50
2022-11-18T23:25:11.302Z,9.50
2022-11-18T23:27:39.619Z,9.40
2022-11-18T23:30:09.212Z,9.50
2022-11-18T23:32:38.894Z,9.50
2022-11-18T23:35:07.769Z,9.40
2022-11-18T23:37:36.094Z,9.50
2022-11-18T23:40:04.767Z,9.40
2022-11-18T23:42:33.184Z,9.40
2022-11-18T23:45:08.608Z,9.40
2022-11-18T23:47:41.098Z,9.20
2022-11-18T23:50:10.139Z,9.10
2022-11-18T23:52:41.596Z,9.00
2022-11-18T23:55:19.077Z,9.00
2022-11-18T23:57:47.365Z,8.90
